Time;durP1;ratioP1;P1;durP2;ratioP2;P2;SDS_P1;SDS_P2;PMS_P1;PMS_P2;Temp;Humidity;BMP_temperature;BMP_pressure;BME280_temperature;BME280_humidity;BME280_pressure;Samples;Min_cycle;Max_cycle;Signal;HPM_P1;HPM_P2
2023/09/28 00:00:47;;;;;;;10.93;5.93;;;14.00;99.90;;;;;;5174975;28;20033;-69
2023/09/28 00:03:18;;;;;;;9.40;5.95;;;14.00;99.90;;;;;;5185706;28;20038;-68
2023/09/28 00:05:53;;;;;;;7.05;5.15;;;13.90;99.90;;;;;;5160101;28;20045;-69
2023/09/28 00:08:27;;;;;;;6.95;5.05;;;13.80;99.90;;;;;;5176878;28;20050;-69
2023/09/28 00:11:04;;;;;;;8.27;5.65;;;13.90;99.90;;;;;;5178788;28;20042;-68
2023/09/28 00:13:38;;;;;;;11.05;5.00;;;13.80;99.90;;;;;;5146299;28;20050;-69
2023/09/28 00:16:14;;;;;;;8.75;5.22;;;13.80;99.90;;;;;;5193012;28;20540;-69
2023/09/28 00:18:46;;;;;;;6.97;5.15;;;13.70;99.90;;;;;;5176611;28;20055;-69
2023/09/28 00:21:26;;;;;;;11.90;5.88;;;13.70;99.90;;;;;;5194651;28;20046;-69
2023/09/28 00:23:58;;;;;;;11.32;5.22;;;13.70;99.90;;;;;;5195252;28;20239;-69
2023/09/28 00:26:29;;;;;;;12.57;6.65;;;13.60;99.90;;;;;;5184709;28;20033;-69
2023/09/28 00:29:01;;;;;;;8.45;4.88;;;13.50;99.90;;;;;;5195140;28;20340;-68
2023/09/28 00:31:35;;;;;;;7.00;4.72;;;13.50;99.90;;;;;;5180587;28;20097;-70
2023/09/28 00:34:14;;;;;;;6.32;5.18;;;13.50;99.90;;;;;;5198799;28;20297;-69
2023/09/28 00:36:45;;;;;;;6.13;4.60;;;13.40;99.90;;;;;;5183949;28;20045;-69
2023/09/28 00:39:19;;;;;;;8.18;5.47;;;13.40;99.90;;;;;;5175584;28;20046;-69
2023/09/28 00:41:53;;;;;;;7.35;4.70;;;13.30;99.90;;;;;;5179967;28;20295;-68
2023/09/28 00:44:28;;;;;;;9.68;5.47;;;13.20;99.90;;;;;;5178942;28;20050;-68
2023/09/28 00:47:01;;;;;;;8.40;4.93;;;13.20;99.90;;;;;;5177041;28;20105;-69
2023/09/28 00:49:33;;;;;;;7.97;5.55;;;13.10;99.90;;;;;;5180022;28;20090;-70
2023/09/28 00:52:07;;;;;;;10.07;6.72;;;13.20;99.90;;;;;;5162501;28;20530;-68
2023/09/28 00:54:44;;;;;;;;;;;13.10;99.90;;;;;;5146571;28;20052;-69
2023/09/28 00:57:17;;;;;;;7.15;4.78;;;13.10;99.90;;;;;;5177654;28;19917;-68
2023/09/28 00:59:56;;;;;;;10.38;5.43;;;13.10;99.90;;;;;;5178997;28;20040;-69
2023/09/28 01:02:31;;;;;;;9.35;5.47;;;13.10;99.90;;;;;;5215972;23;20095;-69
2023/09/28 01:05:08;;;;;;;10.15;5.75;;;13.00;99.90;;;;;;5158778;28;20071;-69
2023/09/28 01:07:43;;;;;;;9.23;5.70;;;13.00;99.90;;;;;;5162003;28;20225;-69
2023/09/28 01:10:23;;;;;;;9.30;6.15;;;12.90;99.90;;;;;;5179582;28;20067;-68
2023/09/28 01:12:58;;;;;;;9.88;5.72;;;12.90;99.90;;;;;;5162113;28;20062;-69
2023/09/28 01:15:35;;;;;;;7.07;6.05;;;12.90;99.90;;;;;;5174257;28;20605;-68
2023/09/28 01:18:17;;;;;;;9.80;6.30;;;12.90;99.90;;;;;;5194378;28;20155;-70
2023/09/28 01:20:51;;;;;;;10.10;5.20;;;12.90;99.90;;;;;;5178154;28;20037;-68
2023/09/28 01:23:26;;;;;;;7.95;6.35;;;12.80;99.90;;;;;;5180101;28;20037;-68
2023/09/28 01:26:01;;;;;;;10.75;7.43;;;12.80;99.90;;;;;;5160101;28;20047;-68
2023/09/28 01:28:41;;;;;;;8.88;5.97;;;12.80;99.90;;;;;;5178728;28;20041;-68
2023/09/28 01:31:14;;;;;;;10.30;6.10;;;12.80;99.90;;;;;;5181597;28;20044;-68
2023/09/28 01:33:46;;;;;;;8.65;6.40;;;12.90;99.90;;;;;;5177240;28;20341;-69
2023/09/28 01:36:23;;;;;;;10.10;6.22;;;12.80;99.90;;;;;;5161048;28;20052;-69
2023/09/28 01:39:02;;;;;;;8.55;6.43;;;12.90;99.90;;;;;;5178209;28;20026;-69
2023/09/28 01:41:34;;;;;;;10.13;7.00;;;12.90;99.90;;;;;;5192742;28;20056;-69
2023/09/28 01:44:08;;;;;;;7.22;5.95;;;12.80;99.90;;;;;;5193491;28;20056;-69
2023/09/28 01:46:45;;;;;;;11.55;6.68;;;12.80;99.90;;;;;;5189579;28;20245;-70
2023/09/28 01:49:18;;;;;;;10.93;5.82;;;12.70;99.90;;;;;;5178769;28;20046;-69
2023/09/28 01:51:50;;;;;;;8.02;5.65;;;12.70;99.90;;;;;;5160985;28;20085;-69
2023/09/28 01:54:27;;;;;;;13.25;7.03;;;12.70;99.90;;;;;;5159734;28;20036;-69
2023/09/28 01:56:59;;;;;;;9.10;6.55;;;12.50;99.90;;;;;;5159257;28;20474;-69
2023/09/28 01:59:34;;;;;;;8.95;5.97;;;12.60;99.90;;;;;;5176138;28;20177;-69
2023/09/28 02:02:05;;;;;;;10.85;6.72;;;12.50;99.90;;;;;;5155922;28;20046;-69
2023/09/28 02:04:40;;;;;;;9.60;6.68;;;12.50;99.90;;;;;;5176418;28;20314;-69
2023/09/28 02:07:15;;;;;;;11.13;6.18;;;12.60;99.90;;;;;;5160863;28;20048;-69
2023/09/28 02:09:47;;;;;;;7.40;5.63;;;12.50;99.90;;;;;;5144550;28;20044;-69
2023/09/28 02:12:20;;;;;;;13.98;6.50;;;12.60;99.90;;;;;;5129512;28;20517;-69
2023/09/28 02:14:52;;;;;;;10.80;6.38;;;12.50;99.90;;;;;;5159691;28;20041;-69
2023/09/28 02:17:38;;;;;;;11.88;6.70;;;12.40;99.90;;;;;;5142596;28;20068;-69
2023/09/28 02:20:16;;;;;;;8.55;6.45;;;12.40;99.90;;;;;;5145365;28;20053;-68
2023/09/28 02:22:54;;;;;;;10.48;6.32;;;12.30;99.90;;;;;;5161027;28;20041;-69
2023/09/28 02:25:29;;;;;;;8.10;6.35;;;12.40;99.90;;;;;;5160362;28;20068;-69
2023/09/28 02:28:04;;;;;;;10.73;6.32;;;12.40;99.90;;;;;;5154642;28;20419;-69
2023/09/28 02:30:36;;;;;;;7.78;5.72;;;12.30;99.90;;;;;;5157533;28;20172;-69
2023/09/28 02:33:10;;;;;;;9.38;6.60;;;12.20;99.90;;;;;;5161353;28;20033;-69
2023/09/28 02:35:42;;;;;;;9.10;6.43;;;12.10;99.90;;;;;;5175850;28;20037;-69
2023/09/28 02:38:15;;;;;;;10.52;6.88;;;12.10;99.90;;;;;;5142166;28;20302;-69
2023/09/28 02:40:54;;;;;;;9.45;6.75;;;12.00;99.90;;;;;;5159664;28;20042;-69
2023/09/28 02:43:29;;;;;;;8.43;6.22;;;12.00;99.90;;;;;;5177951;28;20030;-69
2023/09/28 02:46:01;;;;;;;9.55;7.18;;;12.00;99.90;;;;;;5175409;28;20038;-68
2023/09/28 02:48:36;;;;;;;8.52;7.03;;;12.10;99.90;;;;;;5159741;28;20061;-69
2023/09/28 02:51:11;;;;;;;9.75;7.28;;;12.10;99.90;;;;;;5150446;28;20034;-69
2023/09/28 02:53:44;;;;;;;9.00;5.90;;;12.10;99.90;;;;;;5148081;28;20490;-69
2023/09/28 02:56:17;;;;;;;10.37;7.70;;;12.00;99.90;;;;;;5119509;28;20046;-69
2023/09/28 02:58:48;;;;;;;10.73;6.47;;;12.00;99.90;;;;;;5169339;28;20204;-69
2023/09/28 03:01:23;;;;;;;11.57;6.57;;;12.00;99.90;;;;;;5139047;28;20064;-69
2023/09/28 03:04:00;;;;;;;10.48;7.07;;;12.00;99.90;;;;;;5136590;28;20388;-69
2023/09/28 03:06:40;;;;;;;13.13;7.38;;;12.00;99.90;;;;;;5148718;28;20068;-69
2023/09/28 03:09:13;;;;;;;7.93;6.53;;;12.00;99.90;;;;;;5166823;28;20556;-69
2023/09/28 03:11:47;;;;;;;15.88;7.32;;;12.00;99.90;;;;;;5136337;28;20042;-69
2023/09/28 03:14:19;;;;;;;12.18;7.28;;;11.90;99.90;;;;;;5130536;28;20120;-69
2023/09/28 03:16:58;;;;;;;9.95;7.07;;;12.00;99.90;;;;;;5141049;28;20053;-69
2023/09/28 03:19:33;;;;;;;9.25;6.85;;;12.00;99.90;;;;;;5148652;28;20073;-69
2023/09/28 03:22:05;;;;;;;9.93;7.45;;;12.00;99.90;;;;;;5149229;28;20048;-69
2023/09/28 03:24:39;;;;;;;9.75;6.80;;;12.00;99.90;;;;;;5164240;28;20277;-69
2023/09/28 03:27:11;;;;;;;12.40;6.37;;;11.90;99.90;;;;;;5160362;28;20039;-69
2023/09/28 03:29:47;;;;;;;8.98;6.38;;;11.80;99.90;;;;;;5147052;28;20380;-69
2023/09/28 03:32:22;;;;;;;11.30;8.40;;;11.80;99.90;;;;;;5128490;28;20045;-70
2023/09/28 03:34:53;;;;;;;;;;;11.90;99.90;;;;;;5132376;28;20052;-69
2023/09/28 03:37:24;;;;;;;12.52;7.97;;;11.80;99.90;;;;;;5181780;28;19916;-69
2023/09/28 03:40:04;;;;;;;9.20;7.30;;;11.90;99.90;;;;;;5160164;28;20247;-70
2023/09/28 03:42:43;;;;;;;11.25;7.45;;;11.90;99.90;;;;;;5182293;28;20033;-69
2023/09/28 03:45:23;;;;;;;10.45;7.40;;;11.80;99.90;;;;;;5160348;28;20052;-69
2023/09/28 03:48:02;;;;;;;11.13;7.40;;;11.80;99.90;;;;;;5163593;28;20041;-70
2023/09/28 03:50:35;;;;;;;10.43;7.93;;;11.80;99.90;;;;;;5147855;28;20034;-69
2023/09/28 03:53:07;;;;;;;10.63;7.20;;;11.80;99.90;;;;;;5154029;28;20072;-68
2023/09/28 03:55:38;;;;;;;12.63;8.23;;;11.80;99.90;;;;;;5143925;28;20046;-69
2023/09/28 03:58:13;;;;;;;9.18;7.05;;;11.80;99.90;;;;;;5156557;28;20040;-69
2023/09/28 04:00:52;;;;;;;14.88;7.25;;;11.80;99.90;;;;;;5142690;28;20287;-69
2023/09/28 04:03:24;;;;;;;14.27;6.90;;;11.80;99.90;;;;;;5159829;28;20149;-69
2023/09/28 04:05:57;;;;;;;12.60;7.03;;;11.80;99.90;;;;;;5159057;28;20042;-69
2023/09/28 04:08:31;;;;;;;11.60;7.27;;;11.90;99.90;;;;;;5140685;28;20084;-69
2023/09/28 04:11:07;;;;;;;8.27;6.80;;;11.90;99.90;;;;;;5126754;28;20052;-68
2023/09/28 04:13:44;;;;;;;13.15;8.38;;;11.90;99.90;;;;;;5125969;28;20378;-68
2023/09/28 04:16:15;;;;;;;11.20;7.18;;;12.00;99.90;;;;;;5141161;28;20128;-68
2023/09/28 04:18:46;;;;;;;11.15;7.88;;;12.00;99.90;;;;;;5162241;28;20048;-68
2023/09/28 04:21:18;;;;;;;10.10;7.53;;;12.00;99.90;;;;;;5162654;28;20052;-68
2023/09/28 04:23:49;;;;;;;11.35;7.55;;;11.80;99.90;;;;;;5163310;28;20206;-70
2023/09/28 04:26:21;;;;;;;12.75;8.07;;;11.60;99.90;;;;;;5162057;28;20246;-69
2023/09/28 04:28:52;;;;;;;10.80;7.75;;;11.50;99.90;;;;;;5162692;28;20032;-68
2023/09/28 04:31:29;;;;;;;12.32;8.43;;;11.60;99.90;;;;;;5143556;28;20049;-68
2023/09/28 04:34:02;;;;;;;11.52;7.50;;;11.60;99.90;;;;;;5162490;28;20112;-68
2023/09/28 04:36:38;;;;;;;15.23;7.53;;;11.50;99.90;;;;;;5146756;28;20038;-68
2023/09/28 04:39:18;;;;;;;13.13;7.15;;;11.50;99.90;;;;;;5161032;28;20061;-68
2023/09/28 04:41:54;;;;;;;9.15;6.68;;;11.50;99.90;;;;;;5162499;28;20060;-69
2023/09/28 04:44:27;;;;;;;9.32;6.85;;;11.50;99.90;;;;;;5163026;28;20034;-66
2023/09/28 04:47:04;;;;;;;12.38;7.18;;;11.50;99.90;;;;;;5161170;28;20041;-67
2023/09/28 04:49:44;;;;;;;9.75;6.47;;;11.50;99.90;;;;;;5157536;28;20085;-69
2023/09/28 04:52:22;;;;;;;11.23;6.53;;;11.50;99.90;;;;;;5161977;28;20050;-68
2023/09/28 04:54:54;;;;;;;8.85;6.80;;;11.50;99.90;;;;;;5162226;28;20586;-67
2023/09/28 04:57:28;;;;;;;11.35;6.57;;;11.50;99.90;;;;;;5144370;28;20068;-68
2023/09/28 05:00:06;;;;;;;14.18;8.30;;;11.50;99.90;;;;;;5161301;28;20052;-67
2023/09/28 05:02:40;;;;;;;12.98;7.20;;;11.50;99.90;;;;;;5165153;28;20562;-68
2023/09/28 05:05:16;;;;;;;13.77;7.57;;;11.60;99.90;;;;;;5171254;28;20524;-67
2023/09/28 05:07:49;;;;;;;9.43;7.00;;;11.50;99.90;;;;;;5167706;28;20219;-68
2023/09/28 05:10:28;;;;;;;11.43;7.43;;;11.50;99.90;;;;;;5158718;28;20364;-67
2023/09/28 05:13:02;;;;;;;12.13;8.32;;;11.50;99.90;;;;;;5160626;28;20048;-67
2023/09/28 05:15:36;;;;;;;10.07;7.63;;;11.70;99.90;;;;;;5145588;28;20050;-68
2023/09/28 05:18:13;;;;;;;;;;;11.80;99.90;;;;;;5179713;28;20055;-67
2023/09/28 05:20:44;;;;;;;9.48;6.70;;;11.90;99.90;;;;;;5162363;28;19913;-66
2023/09/28 05:23:16;;;;;;;10.65;7.93;;;11.90;99.90;;;;;;5159597;28;20125;-67
2023/09/28 05:25:49;;;;;;;12.23;8.38;;;12.10;99.90;;;;;;5170949;28;20041;-68
2023/09/28 05:28:21;;;;;;;12.55;7.85;;;12.20;99.90;;;;;;5151853;28;20041;-68
2023/09/28 05:30:55;;;;;;;9.73;6.90;;;12.30;99.90;;;;;;5144012;28;20026;-68
2023/09/28 05:33:27;;;;;;;9.30;7.18;;;12.30;99.90;;;;;;5164257;28;20025;-67
2023/09/28 05:35:59;;;;;;;8.85;7.13;;;12.50;99.90;;;;;;5139717;28;20561;-68
2023/09/28 05:38:36;;;;;;;11.40;7.07;;;12.60;99.90;;;;;;5164050;28;20041;-68
2023/09/28 05:41:07;;;;;;;10.32;7.50;;;12.80;99.90;;;;;;5181380;28;20034;-68
2023/09/28 05:43:39;;;;;;;9.70;6.40;;;13.00;99.90;;;;;;5158276;28;20042;-69
2023/09/28 05:46:15;;;;;;;9.98;7.25;;;13.10;99.90;;;;;;5173293;28;20034;-68
2023/09/28 05:48:47;;;;;;;10.40;7.47;;;13.20;99.90;;;;;;5156342;28;20057;-68
2023/09/28 05:51:21;;;;;;;8.73;6.50;;;13.40;99.90;;;;;;5153450;28;20057;-69
2023/09/28 05:53:55;;;;;;;11.13;7.83;;;13.50;99.90;;;;;;5129697;28;20038;-68
2023/09/28 05:56:29;;;;;;;;;;;13.60;99.90;;;;;;5180211;28;20259;-68
2023/09/28 05:59:03;;;;;;;8.57;6.20;;;13.80;99.90;;;;;;5179178;28;20085;-69
2023/09/28 06:01:40;;;;;;;;;;;14.10;99.90;;;;;;5150021;28;20334;-68
2023/09/28 06:04:14;;;;;;;9.07;6.70;;;14.30;99.90;;;;;;5158561;28;19910;-67
2023/09/28 06:06:46;;;;;;;10.93;7.18;;;14.70;99.90;;;;;;5142646;28;20333;-69
2023/09/28 06:09:21;;;;;;;9.60;6.53;;;14.90;99.90;;;;;;5110652;28;20038;-68
2023/09/28 06:11:57;;;;;;;9.98;7.03;;;15.00;79.90;;;;;;5142588;28;20346;-67
2023/09/28 06:14:29;;;;;;;11.35;7.22;;;14.90;15.50;;;;;;5127235;28;20042;-67
2023/09/28 06:17:03;;;;;;;9.65;6.97;;;14.90;99.90;;;;;;5149228;28;20316;-67
2023/09/28 06:19:38;;;;;;;9.27;6.93;;;14.90;72.40;;;;;;5149441;28;20038;-68
2023/09/28 06:22:09;;;;;;;9.85;6.90;;;15.00;97.40;;;;;;5137212;28;20448;-69
2023/09/28 06:24:43;;;;;;;12.52;6.97;;;15.10;43.60;;;;;;5169159;28;20229;-67
2023/09/28 06:27:17;;;;;;;10.13;6.80;;;15.20;8.70;;;;;;5171312;28;20026;-70
2023/09/28 06:29:53;;;;;;;13.73;7.07;;;15.50;38.90;;;;;;5163701;28;20344;-68
2023/09/28 06:32:30;;;;;;;12.45;6.75;;;15.80;1.00;;;;;;5143623;28;20157;-68
2023/09/28 06:35:08;;;;;;;15.82;6.40;;;16.10;1.00;;;;;;5160647;28;20052;-67
2023/09/28 06:37:40;;;;;;;11.18;6.82;;;16.50;1.00;;;;;;5135789;28;20042;-67
2023/09/28 06:40:14;;;;;;;10.45;6.32;;;16.90;1.00;;;;;;5162589;28;20041;-67
2023/09/28 06:42:46;;;;;;;10.45;6.00;;;17.20;1.00;;;;;;5163820;28;20029;-68
2023/09/28 06:45:18;;;;;;;15.93;7.32;;;17.30;1.00;;;;;;5176910;28;20081;-68
2023/09/28 06:47:51;;;;;;;10.38;6.07;;;17.30;1.00;;;;;;5149951;28;20052;-69
2023/09/28 06:50:25;;;;;;;10.00;6.45;;;17.30;1.00;;;;;;5160585;28;20203;-68
2023/09/28 06:52:57;;;;;;;;;;;17.70;1.00;;;;;;5157820;28;20263;-68
2023/09/28 06:55:31;;;;;;;10.35;5.70;;;18.10;1.00;;;;;;5146116;28;19920;-70
2023/09/28 06:58:06;;;;;;;7.75;5.80;;;18.30;99.90;;;;;;5161690;28;20196;-69
2023/09/28 07:00:40;;;;;;;9.93;5.63;;;18.60;99.90;;;;;;5156805;28;20042;-69
2023/09/28 07:03:12;;;;;;;8.18;5.30;;;19.00;40.90;;;;;;5155035;28;20040;-70
2023/09/28 07:05:46;;;;;;;7.40;4.65;;;19.20;67.70;;;;;;5162903;28;20354;-70
2023/09/28 07:08:20;;;;;;;9.65;6.07;;;19.40;1.00;;;;;;5161553;28;20244;-68
2023/09/28 07:10:58;;;;;;;8.95;5.00;;;19.50;7.00;;;;;;5150523;28;20261;-68
2023/09/28 07:13:34;;;;;;;6.82;4.97;;;19.50;1.00;;;;;;5133801;28;20023;-70
2023/09/28 07:16:11;;;;;;;5.97;4.25;;;19.70;1.00;;;;;;5155764;28;20030;-67
2023/09/28 07:18:43;;;;;;;5.70;4.55;;;19.80;1.00;;;;;;5146835;28;20041;-67
2023/09/28 07:21:20;;;;;;;8.25;4.45;;;20.20;1.00;;;;;;5161087;28;20404;-69
2023/09/28 07:23:54;;;;;;;6.95;4.25;;;20.30;1.00;;;;;;5129352;28;20327;-68
2023/09/28 07:26:30;;;;;;;9.48;3.90;;;20.30;1.00;;;;;;5149153;28;20034;-68
2023/09/28 07:29:02;;;;;;;6.63;4.25;;;20.40;1.00;;;;;;5161593;28;20354;-69
2023/09/28 07:31:33;;;;;;;7.53;4.93;;;20.60;1.00;;;;;;5158259;28;20033;-69
2023/09/28 07:34:08;;;;;;;7.38;4.47;;;20.60;1.00;;;;;;5161248;28;20326;-69
2023/09/28 07:36:39;;;;;;;;;;;20.80;1.00;;;;;;5146344;28;20034;-69
2023/09/28 07:39:15;;;;;;;10.35;4.63;;;20.90;1.00;;;;;;5177123;28;19909;-71
2023/09/28 07:41:52;;;;;;;4.78;3.92;;;20.90;1.00;;;;;;5142358;28;20461;-67
2023/09/28 07:44:29;;;;;;;5.53;4.43;;;21.30;1.00;;;;;;5170427;28;20050;-68
2023/09/28 07:47:03;;;;;;;7.43;4.40;;;21.50;1.00;;;;;;5175003;28;20350;-69
2023/09/28 07:49:37;;;;;;;7.10;4.22;;;21.60;1.00;;;;;;5165641;28;20037;-69
2023/09/28 07:52:08;;;;;;;8.48;4.05;;;21.70;1.00;;;;;;5149416;28;20038;-70
2023/09/28 07:54:40;;;;;;;8.20;4.40;;;22.10;1.00;;;;;;5182982;28;20061;-69
2023/09/28 07:57:12;;;;;;;7.28;3.50;;;22.10;1.00;;;;;;5182898;28;20018;-68
2023/09/28 07:59:46;;;;;;;6.05;3.80;;;22.10;1.00;;;;;;5160371;28;20030;-67
2023/09/28 08:02:18;;;;;;;5.57;4.30;;;22.20;99.90;;;;;;5148383;28;20042;-69
2023/09/28 08:04:55;;;;;;;10.40;4.18;;;22.10;99.90;;;;;;5160158;28;20056;-69
2023/09/28 08:07:31;;;;;;;10.60;5.25;;;21.80;1.00;;;;;;5162747;28;20044;-68
2023/09/28 08:10:09;;;;;;;9.85;4.20;;;21.90;99.90;;;;;;5162296;28;20032;-68
2023/09/28 08:12:48;;;;;;;5.20;4.25;;;21.90;99.90;;;;;;5128400;28;20052;-68
2023/09/28 08:15:22;;;;;;;5.40;4.25;;;22.20;1.00;;;;;;5158099;28;20422;-70
2023/09/28 08:17:53;;;;;;;4.97;3.88;;;22.50;99.90;;;;;;5153063;28;20049;-69
2023/09/28 08:20:26;;;;;;;8.77;4.50;;;22.50;99.90;;;;;;5171457;28;20327;-68
2023/09/28 08:22:57;;;;;;;6.78;4.30;;;22.80;99.90;;;;;;5132368;28;20068;-67
2023/09/28 08:25:33;;;;;;;4.93;4.22;;;22.90;99.90;;;;;;5158444;28;20029;-68
2023/09/28 08:28:05;;;;;;;5.97;4.45;;;23.40;99.90;;;;;;5174837;28;20045;-68
2023/09/28 08:30:39;;;;;;;6.90;4.28;;;23.60;99.90;;;;;;5179184;28;20343;-70
2023/09/28 08:33:16;;;;;;;5.68;3.78;;;23.40;99.90;;;;;;5148860;28;20057;-68
2023/09/28 08:35:53;;;;;;;4.70;3.72;;;23.10;99.90;;;;;;5147955;28;20091;-68
2023/09/28 08:38:25;;;;;;;5.22;3.90;;;23.30;99.90;;;;;;5131615;28;20385;-69
2023/09/28 08:41:07;;;;;;;5.50;3.97;;;23.50;99.90;;;;;;5163071;28;20040;-69
2023/09/28 08:44:03;;;;;;;7.03;3.92;;;23.60;99.90;;;;;;5147131;28;20284;-69
2023/09/28 08:46:38;;;;;;;5.93;3.85;;;24.00;99.90;;;;;;5141787;28;20219;-70
2023/09/28 08:49:17;;;;;;;5.72;3.63;;;24.20;99.90;;;;;;5164928;28;20234;-70
2023/09/28 08:51:51;;;;;;;5.30;3.20;;;24.20;99.90;;;;;;5180637;28;20018;-69
2023/09/28 08:54:28;;;;;;;7.82;3.88;;;24.40;99.90;;;;;;5158192;28;20038;-68
2023/09/28 08:57:00;;;;;;;5.72;3.97;;;24.40;99.90;;;;;;5150017;28;20297;-68
2023/09/28 08:59:35;;;;;;;4.00;3.28;;;24.60;99.90;;;;;;5176377;28;20018;-67
2023/09/28 09:02:08;;;;;;;8.93;3.80;;;24.80;1.00;;;;;;5116950;28;20257;-68
2023/09/28 09:04:43;;;;;;;3.50;3.20;;;25.00;1.00;;;;;;5164407;28;20045;-70
2023/09/28 09:07:15;;;;;;;7.00;3.83;;;25.10;1.00;;;;;;5146767;28;20029;-69
2023/09/28 09:09:48;;;;;;;4.25;2.88;;;25.20;1.00;;;;;;5147012;28;20036;-68
2023/09/28 09:12:20;;;;;;;4.28;3.67;;;25.30;1.00;;;;;;5157397;28;20064;-69
2023/09/28 09:14:51;;;;;;;14.45;4.15;;;25.10;1.00;;;;;;5150746;28;20033;-68
2023/09/28 09:17:40;;;;;;;6.18;4.47;;;24.60;99.90;;;;;;5178581;28;20056;-69
2023/09/28 09:20:12;;;;;;;8.52;3.40;;;24.50;99.90;;;;;;5181066;28;20026;-69
2023/09/28 09:22:47;;;;;;;8.48;3.95;;;24.90;1.00;;;;;;5163162;28;20048;-68
2023/09/28 09:25:26;;;;;;;3.97;3.15;;;24.80;1.00;;;;;;5178196;28;20297;-69
2023/09/28 09:28:00;;;;;;;6.88;3.72;;;25.40;99.90;;;;;;5180776;28;20184;-69
2023/09/28 09:30:36;;;;;;;6.47;3.45;;;25.70;1.00;;;;;;5154533;28;20199;-68
2023/09/28 09:33:18;;;;;;;6.40;3.72;;;25.70;1.00;;;;;;5152237;28;20318;-70
2023/09/28 09:35:51;;;;;;;5.22;4.25;;;25.70;1.00;;;;;;5161662;28;20140;-70
2023/09/28 09:38:24;;;;;;;10.48;4.15;;;25.90;1.00;;;;;;5170648;28;20030;-69
2023/09/28 09:41:12;;;;;;;6.03;3.28;;;26.20;1.00;;;;;;5168352;28;20030;-69
2023/09/28 09:43:46;;;;;;;5.47;3.38;;;26.00;1.00;;;;;;5174562;28;20041;-69
2023/09/28 09:46:17;;;;;;;6.43;4.07;;;26.20;1.00;;;;;;5162344;28;20076;-69
2023/09/28 09:48:54;;;;;;;4.78;3.55;;;26.60;1.00;;;;;;5158601;28;20030;-69
2023/09/28 09:51:33;;;;;;;5.03;3.35;;;27.10;1.00;;;;;;5178938;28;20034;-70
2023/09/28 09:54:05;;;;;;;4.30;3.30;;;27.30;99.90;;;;;;5165655;28;20037;-70
2023/09/28 09:56:40;;;;;;;5.93;3.88;;;27.10;99.90;;;;;;5146845;28;20038;-69
2023/09/28 09:59:16;;;;;;;5.38;3.60;;;27.10;99.90;;;;;;5146665;28;20033;-71
2023/09/28 10:01:55;;;;;;;8.30;3.80;;;27.60;19.20;;;;;;5136873;28;20057;-70
2023/09/28 10:04:27;;;;;;;6.10;3.65;;;28.30;1.00;;;;;;5168230;28;20030;-69
2023/09/28 10:07:00;;;;;;;4.25;3.22;;;28.40;1.00;;;;;;5137618;28;20064;-68
2023/09/28 10:09:34;;;;;;;4.03;3.00;;;28.90;25.10;;;;;;5147901;28;20198;-70
2023/09/28 10:12:08;;;;;;;4.68;3.65;;;29.70;1.00;;;;;;5145781;28;20038;-74
2023/09/28 10:14:42;;;;;;;6.07;3.78;;;30.40;99.90;;;;;;5177826;28;20055;-70
2023/09/28 10:17:20;;;;;;;4.22;3.13;;;30.80;99.90;;;;;;5180282;28;20040;-70
2023/09/28 10:19:59;;;;;;;4.03;3.13;;;31.30;99.90;;;;;;5163014;28;20034;-70
2023/09/28 10:22:34;;;;;;;3.95;2.92;;;31.80;99.90;;;;;;5175019;28;20049;-69
2023/09/28 10:25:17;;;;;;;6.97;3.58;;;32.50;1.00;;;;;;5161859;28;20030;-71
2023/09/28 10:27:58;;;;;;;4.70;2.95;;;33.10;1.00;;;;;;5163710;28;20045;-71
2023/09/28 10:30:35;;;;;;;8.23;3.58;;;32.70;1.00;;;;;;5161837;28;20038;-69
2023/09/28 10:33:12;;;;;;;4.10;3.40;;;32.30;1.00;;;;;;5126014;28;20234;-71
2023/09/28 10:35:48;;;;;;;8.60;2.92;;;32.80;1.00;;;;;;5158381;28;20036;-72
2023/09/28 10:38:22;;;;;;;3.78;3.08;;;33.00;1.00;;;;;;5167447;28;20048;-69
2023/09/28 10:40:57;;;;;;;3.17;2.67;;;32.90;1.00;;;;;;5149939;28;20250;-69
2023/09/28 10:43:45;;;;;;;4.47;3.05;;;31.70;1.00;;;;;;5159489;28;20061;-70
2023/09/28 10:46:17;;;;;;;6.00;3.13;;;31.00;1.00;;;;;;5161657;28;20354;-69
2023/09/28 10:48:49;;;;;;;6.82;2.90;;;31.40;1.00;;;;;;5152966;28;20033;-69
2023/09/28 10:51:20;;;;;;;4.38;2.97;;;31.60;1.00;;;;;;5174007;28;20048;-71
2023/09/28 10:53:55;;;;;;;4.07;3.03;;;32.00;1.00;;;;;;5162142;28;20495;-72
2023/09/28 10:56:27;;;;;;;8.43;3.42;;;31.80;1.00;;;;;;5145359;28;20208;-69
2023/09/28 10:59:01;;;;;;;3.88;3.10;;;33.10;1.00;;;;;;5162403;28;20250;-70
2023/09/28 11:01:45;;;;;;;6.15;3.13;;;34.30;1.00;;;;;;5141032;28;20125;-72
2023/09/28 11:04:19;;;;;;;4.38;3.13;;;35.50;1.00;;;;;;5177438;28;20341;-72
2023/09/28 11:06:53;;;;;;;4.60;3.22;;;36.50;1.00;;;;;;5172749;28;20044;-72
2023/09/28 11:09:29;;;;;;;4.82;2.75;;;34.50;1.00;;;;;;5156508;28;20043;-70
2023/09/28 11:12:08;;;;;;;4.65;3.17;;;34.60;1.00;;;;;;5160297;28;20037;-69
2023/09/28 11:14:43;;;;;;;4.75;3.17;;;35.60;1.00;;;;;;5147232;28;20217;-72
2023/09/28 11:17:14;;;;;;;3.60;2.80;;;35.40;1.00;;;;;;5161878;28;20033;-69
2023/09/28 11:19:48;;;;;;;7.50;3.45;;;34.60;1.00;;;;;;5165089;28;20048;-71
2023/09/28 11:22:20;;;;;;;3.90;2.80;;;34.60;1.00;;;;;;5163904;28;20043;-72
2023/09/28 11:24:51;;;;;;;4.75;3.03;;;35.20;1.00;;;;;;5164012;28;20250;-71
2023/09/28 11:27:26;;;;;;;4.35;3.03;;;35.30;1.00;;;;;;5166534;28;20042;-71
2023/09/28 11:30:02;;;;;;;3.90;3.60;;;35.30;1.00;;;;;;5167516;28;20364;-73
2023/09/28 11:32:55;;;;;;;4.20;3.10;;;36.10;1.00;;;;;;5165586;28;20044;-70
2023/09/28 11:35:26;;;;;;;3.13;2.75;;;36.50;1.00;;;;;;5166249;28;20034;-71
2023/09/28 11:38:02;;;;;;;3.47;3.03;;;37.70;1.00;;;;;;5166693;28;20038;-70
2023/09/28 11:40:39;;;;;;;4.43;3.40;;;38.30;1.00;;;;;;5173874;28;20037;-72
2023/09/28 11:43:11;;;;;;;5.25;2.85;;;36.50;1.00;;;;;;5178883;28;20052;-71
2023/09/28 11:45:45;;;;;;;12.63;3.30;;;36.40;1.00;;;;;;5183425;28;20050;-70
2023/09/28 11:48:22;;;;;;;6.88;3.20;;;36.80;1.00;;;;;;5184950;28;20216;-69
2023/09/28 11:50:54;;;;;;;4.00;2.67;;;35.20;1.00;;;;;;5167447;28;20025;-73
2023/09/28 11:53:28;;;;;;;7.10;3.28;;;35.90;1.00;;;;;;5167167;28;20044;-71
2023/09/28 11:56:03;;;;;;;6.38;3.40;;;36.20;1.00;;;;;;5151249;28;20051;-69
2023/09/28 11:58:35;;;;;;;3.33;3.00;;;36.30;1.00;;;;;;5159564;28;20042;-71
2023/09/28 12:01:12;;;;;;;9.20;3.78;;;37.00;1.00;;;;;;5155620;28;20520;-71
2023/09/28 12:03:48;;;;;;;4.47;2.92;;;36.20;1.00;;;;;;5143749;28;20048;-70
2023/09/28 12:06:22;;;;;;;3.25;2.95;;;36.60;1.00;;;;;;5182560;28;20038;-69
2023/09/28 12:08:55;;;;;;;4.38;2.60;;;35.50;1.00;;;;;;5165987;28;20052;-69
2023/09/28 12:11:26;;;;;;;5.25;2.53;;;35.30;1.00;;;;;;5183595;28;20258;-70
2023/09/28 12:13:59;;;;;;;6.57;2.80;;;34.60;1.00;;;;;;5161723;28;20026;-68
2023/09/28 12:16:33;;;;;;;3.42;2.75;;;34.00;1.00;;;;;;5175517;28;20053;-73
2023/09/28 12:19:10;;;;;;;5.38;3.33;;;34.50;1.00;;;;;;5134690;28;20034;-71
2023/09/28 12:21:45;;;;;;;7.22;2.83;;;35.40;1.00;;;;;;5147719;28;20049;-69
2023/09/28 12:24:20;;;;;;;5.78;2.67;;;35.90;1.00;;;;;;5155029;28;20018;-69
2023/09/28 12:26:52;;;;;;;5.80;2.30;;;35.50;1.00;;;;;;5181580;28;20045;-69
2023/09/28 12:29:26;;;;;;;6.75;2.70;;;34.70;1.00;;;;;;5164892;28;20032;-70
2023/09/28 12:31:58;;;;;;;;;;;35.20;1.00;;;;;;5165389;28;20022;-70
2023/09/28 12:34:36;;;;;;;3.97;3.30;;;35.70;1.00;;;;;;5179993;28;19917;-70
2023/09/28 12:37:10;;;;;;;4.03;2.83;;;36.40;1.00;;;;;;5171533;28;20044;-73
2023/09/28 12:39:44;;;;;;;3.20;2.90;;;36.90;1.00;;;;;;5125844;28;20038;-69
2023/09/28 12:42:24;;;;;;;3.20;2.90;;;36.20;1.00;;;;;;5165852;28;20033;-69
2023/09/28 12:44:58;;;;;;;4.50;2.63;;;34.10;1.00;;;;;;5162122;28;20052;-71
2023/09/28 12:47:32;;;;;;;4.32;3.38;;;34.60;1.00;;;;;;5170307;28;20038;-71
2023/09/28 12:50:06;;;;;;;;;;;34.10;1.00;;;;;;5162590;28;20408;-71
2023/09/28 12:52:40;;;;;;;3.38;2.30;;;34.20;1.00;;;;;;5161786;28;19922;-69
2023/09/28 12:55:14;;;;;;;3.20;2.70;;;34.60;1.00;;;;;;5183922;28;20499;-70
2023/09/28 12:57:46;;;;;;;3.83;2.65;;;35.20;1.00;;;;;;5166026;28;20025;-71
2023/09/28 13:00:25;;;;;;;5.47;3.30;;;35.10;1.00;;;;;;5164392;28;20034;-70
2023/09/28 13:03:07;;;;;;;4.80;2.80;;;35.30;1.00;;;;;;5163426;28;20049;-69
2023/09/28 13:05:41;;;;;;;4.70;3.28;;;34.10;1.00;;;;;;5154431;28;20471;-68
2023/09/28 13:08:13;;;;;;;8.27;3.17;;;34.40;1.00;;;;;;5176050;28;20050;-72
2023/09/28 13:10:44;;;;;;;3.90;2.78;;;34.70;1.00;;;;;;5159801;28;20053;-71
2023/09/28 13:13:16;;;;;;;5.00;2.90;;;34.00;1.00;;;;;;5159893;28;20030;-73
2023/09/28 13:15:48;;;;;;;4.10;2.55;;;33.10;1.00;;;;;;5165822;28;20048;-69
2023/09/28 13:18:23;;;;;;;4.20;3.17;;;33.40;1.00;;;;;;5164745;28;20042;-69
2023/09/28 13:20:58;;;;;;;7.22;3.10;;;33.30;1.00;;;;;;5161490;28;20071;-74
2023/09/28 13:23:30;;;;;;;3.75;2.78;;;33.50;1.00;;;;;;5145437;28;20052;-72
2023/09/28 13:26:03;;;;;;;4.70;2.97;;;33.20;1.00;;;;;;5146900;28;20055;-69
2023/09/28 13:28:35;;;;;;;7.67;3.53;;;33.10;1.00;;;;;;5146036;28;20050;-70